sensor_id;sensor_type;location;lat;lon;timestamp;P1;durP1;ratioP1;P2;durP2;ratioP2
67274;SDS011;55463;52.324;5.122;2023-07-29T00:00:52;4.70;;;2.10;;
67274;SDS011;55463;52.324;5.122;2023-07-29T00:03:17;6.13;;;1.90;;
67274;SDS011;55463;52.324;5.122;2023-07-29T00:05:42;5.53;;;1.75;;
67274;SDS011;55463;52.324;5.122;2023-07-29T00:08:08;4.72;;;1.92;;
67274;SDS011;55463;52.324;5.122;2023-07-29T00:10:35;3.28;;;1.65;;
67274;SDS011;55463;52.324;5.122;2023-07-29T00:13:02;3.60;;;1.98;;
67274;SDS011;55463;52.324;5.122;2023-07-29T00:15:28;4.47;;;1.80;;
67274;SDS011;55463;52.324;5.122;2023-07-29T00:17:53;2.67;;;1.80;;
67274;SDS011;55463;52.324;5.122;2023-07-29T00:20:18;3.00;;;1.90;;
67274;SDS011;55463;52.324;5.122;2023-07-29T00:22:44;4.20;;;1.90;;
67274;SDS011;55463;52.324;5.122;2023-07-29T00:25:09;3.40;;;1.67;;
67274;SDS011;55463;52.324;5.122;2023-07-29T00:27:34;2.85;;;1.70;;
67274;SDS011;55463;52.324;5.122;2023-07-29T00:30:00;6.28;;;2.17;;
67274;SDS011;55463;52.324;5.122;2023-07-29T00:32:27;5.03;;;1.70;;
67274;SDS011;55463;52.324;5.122;2023-07-29T00:34:54;4.25;;;1.83;;
67274;SDS011;55463;52.324;5.122;2023-07-29T00:37:19;5.28;;;1.67;;
67274;SDS011;55463;52.324;5.122;2023-07-29T00:39:45;5.35;;;1.90;;
67274;SDS011;55463;52.324;5.122;2023-07-29T00:42:10;5.57;;;2.10;;
67274;SDS011;55463;52.324;5.122;2023-07-29T00:44:35;2.58;;;1.88;;
67274;SDS011;55463;52.324;5.122;2023-07-29T00:47:02;3.38;;;2.13;;
67274;SDS011;55463;52.324;5.122;2023-07-29T00:49:29;3.50;;;2.13;;
67274;SDS011;55463;52.324;5.122;2023-07-29T00:51:55;6.35;;;1.80;;
67274;SDS011;55463;52.324;5.122;2023-07-29T00:54:20;5.00;;;2.28;;
67274;SDS011;55463;52.324;5.122;2023-07-29T00:56:47;8.70;;;2.40;;
67274;SDS011;55463;52.324;5.122;2023-07-29T00:59:12;5.47;;;2.00;;
67274;SDS011;55463;52.324;5.122;2023-07-29T01:01:38;5.57;;;2.00;;
67274;SDS011;55463;52.324;5.122;2023-07-29T01:04:03;5.75;;;2.00;;
67274;SDS011;55463;52.324;5.122;2023-07-29T01:09:20;4.75;;;2.05;;
67274;SDS011;55463;52.324;5.122;2023-07-29T01:12:08;3.70;;;1.92;;
67274;SDS011;55463;52.324;5.122;2023-07-29T01:17:46;4.07;;;1.80;;
67274;SDS011;55463;52.324;5.122;2023-07-29T01:20:15;4.40;;;1.80;;
67274;SDS011;55463;52.324;5.122;2023-07-29T01:22:42;5.97;;;2.00;;
67274;SDS011;55463;52.324;5.122;2023-07-29T01:25:08;5.28;;;2.20;;
67274;SDS011;55463;52.324;5.122;2023-07-29T01:27:33;4.25;;;1.98;;
67274;SDS011;55463;52.324;5.122;2023-07-29T01:29:59;5.35;;;2.10;;
67274;SDS011;55463;52.324;5.122;2023-07-29T01:35:00;4.05;;;1.90;;
67274;SDS011;55463;52.324;5.122;2023-07-29T01:37:28;4.30;;;2.00;;
67274;SDS011;55463;52.324;5.122;2023-07-29T01:39:56;6.90;;;2.03;;
67274;SDS011;55463;52.324;5.122;2023-07-29T01:42:24;3.17;;;1.73;;
67274;SDS011;55463;52.324;5.122;2023-07-29T01:44:50;5.70;;;2.17;;
67274;SDS011;55463;52.324;5.122;2023-07-29T01:47:15;8.73;;;2.25;;
67274;SDS011;55463;52.324;5.122;2023-07-29T01:49:41;7.15;;;2.20;;
67274;SDS011;55463;52.324;5.122;2023-07-29T01:52:06;5.93;;;2.20;;
67274;SDS011;55463;52.324;5.122;2023-07-29T01:54:32;12.50;;;2.47;;
67274;SDS011;55463;52.324;5.122;2023-07-29T01:56:57;5.70;;;2.20;;
67274;SDS011;55463;52.324;5.122;2023-07-29T01:59:22;8.32;;;2.10;;
67274;SDS011;55463;52.324;5.122;2023-07-29T02:01:48;8.50;;;2.35;;
67274;SDS011;55463;52.324;5.122;2023-07-29T02:04:13;7.40;;;2.22;;
67274;SDS011;55463;52.324;5.122;2023-07-29T02:06:39;2.53;;;1.95;;
67274;SDS011;55463;52.324;5.122;2023-07-29T02:09:04;2.45;;;2.20;;
67274;SDS011;55463;52.324;5.122;2023-07-29T02:11:30;5.10;;;2.25;;
67274;SDS011;55463;52.324;5.122;2023-07-29T02:13:55;8.38;;;2.47;;
67274;SDS011;55463;52.324;5.122;2023-07-29T02:16:21;11.15;;;2.58;;
67274;SDS011;55463;52.324;5.122;2023-07-29T02:18:47;6.75;;;2.83;;
67274;SDS011;55463;52.324;5.122;2023-07-29T02:21:14;7.07;;;2.78;;
67274;SDS011;55463;52.324;5.122;2023-07-29T02:23:40;7.47;;;2.90;;
67274;SDS011;55463;52.324;5.122;2023-07-29T02:26:05;5.15;;;2.72;;
67274;SDS011;55463;52.324;5.122;2023-07-29T02:28:31;8.00;;;3.03;;
67274;SDS011;55463;52.324;5.122;2023-07-29T02:31:09;5.85;;;3.10;;
67274;SDS011;55463;52.324;5.122;2023-07-29T02:33:54;9.48;;;3.10;;
67274;SDS011;55463;52.324;5.122;2023-07-29T02:36:20;6.32;;;2.90;;
67274;SDS011;55463;52.324;5.122;2023-07-29T02:38:46;5.07;;;2.95;;
67274;SDS011;55463;52.324;5.122;2023-07-29T02:41:11;5.10;;;3.03;;
67274;SDS011;55463;52.324;5.122;2023-07-29T02:43:37;6.55;;;3.05;;
67274;SDS011;55463;52.324;5.122;2023-07-29T02:46:03;12.70;;;3.30;;
67274;SDS011;55463;52.324;5.122;2023-07-29T02:48:29;5.40;;;2.88;;
67274;SDS011;55463;52.324;5.122;2023-07-29T02:50:55;11.75;;;3.88;;
67274;SDS011;55463;52.324;5.122;2023-07-29T02:53:21;8.50;;;3.10;;
67274;SDS011;55463;52.324;5.122;2023-07-29T02:55:47;7.68;;;3.97;;
67274;SDS011;55463;52.324;5.122;2023-07-29T02:58:13;12.73;;;3.58;;
67274;SDS011;55463;52.324;5.122;2023-07-29T03:00:39;6.18;;;3.55;;
67274;SDS011;55463;52.324;5.122;2023-07-29T03:03:06;8.98;;;3.30;;
67274;SDS011;55463;52.324;5.122;2023-07-29T03:05:35;6.32;;;3.28;;
67274;SDS011;55463;52.324;5.122;2023-07-29T03:08:03;11.43;;;3.22;;
67274;SDS011;55463;52.324;5.122;2023-07-29T03:10:28;7.72;;;3.17;;
67274;SDS011;55463;52.324;5.122;2023-07-29T03:12:54;8.30;;;3.50;;
67274;SDS011;55463;52.324;5.122;2023-07-29T03:15:23;6.32;;;3.22;;
67274;SDS011;55463;52.324;5.122;2023-07-29T03:17:49;6.28;;;3.25;;
67274;SDS011;55463;52.324;5.122;2023-07-29T03:20:14;8.57;;;3.30;;
67274;SDS011;55463;52.324;5.122;2023-07-29T03:22:40;8.45;;;3.47;;
67274;SDS011;55463;52.324;5.122;2023-07-29T03:25:05;10.07;;;3.30;;
67274;SDS011;55463;52.324;5.122;2023-07-29T03:27:31;8.70;;;3.25;;
67274;SDS011;55463;52.324;5.122;2023-07-29T03:29:56;8.60;;;3.30;;
67274;SDS011;55463;52.324;5.122;2023-07-29T03:32:21;9.07;;;3.17;;
67274;SDS011;55463;52.324;5.122;2023-07-29T03:34:47;11.55;;;3.80;;
67274;SDS011;55463;52.324;5.122;2023-07-29T03:37:13;7.60;;;3.33;;
67274;SDS011;55463;52.324;5.122;2023-07-29T03:39:38;10.02;;;3.38;;
67274;SDS011;55463;52.324;5.122;2023-07-29T03:42:04;9.02;;;3.88;;
67274;SDS011;55463;52.324;5.122;2023-07-29T03:44:29;6.00;;;3.47;;
67274;SDS011;55463;52.324;5.122;2023-07-29T03:46:56;5.10;;;3.10;;
67274;SDS011;55463;52.324;5.122;2023-07-29T03:49:21;6.53;;;3.40;;
67274;SDS011;55463;52.324;5.122;2023-07-29T03:51:46;8.63;;;3.80;;
67274;SDS011;55463;52.324;5.122;2023-07-29T03:54:15;9.57;;;3.42;;
67274;SDS011;55463;52.324;5.122;2023-07-29T03:56:40;9.02;;;3.67;;
67274;SDS011;55463;52.324;5.122;2023-07-29T03:59:06;6.90;;;3.80;;
67274;SDS011;55463;52.324;5.122;2023-07-29T04:01:31;7.50;;;3.90;;
67274;SDS011;55463;52.324;5.122;2023-07-29T04:03:57;9.75;;;3.30;;
67274;SDS011;55463;52.324;5.122;2023-07-29T04:06:23;9.50;;;3.40;;
67274;SDS011;55463;52.324;5.122;2023-07-29T04:08:48;6.45;;;3.38;;
67274;SDS011;55463;52.324;5.122;2023-07-29T04:11:14;7.80;;;3.20;;
67274;SDS011;55463;52.324;5.122;2023-07-29T04:13:39;7.55;;;3.40;;
67274;SDS011;55463;52.324;5.122;2023-07-29T04:16:06;5.88;;;3.20;;
67274;SDS011;55463;52.324;5.122;2023-07-29T04:18:32;8.60;;;3.05;;
67274;SDS011;55463;52.324;5.122;2023-07-29T04:21:01;5.93;;;3.08;;
67274;SDS011;55463;52.324;5.122;2023-07-29T04:23:26;6.25;;;2.90;;
67274;SDS011;55463;52.324;5.122;2023-07-29T04:25:51;5.53;;;2.80;;
67274;SDS011;55463;52.324;5.122;2023-07-29T04:28:17;9.90;;;3.00;;
67274;SDS011;55463;52.324;5.122;2023-07-29T04:30:42;9.75;;;3.13;;
67274;SDS011;55463;52.324;5.122;2023-07-29T04:33:07;4.93;;;3.00;;
67274;SDS011;55463;52.324;5.122;2023-07-29T04:35:33;3.97;;;2.60;;
67274;SDS011;55463;52.324;5.122;2023-07-29T04:37:58;5.90;;;2.70;;
67274;SDS011;55463;52.324;5.122;2023-07-29T04:40:24;4.43;;;2.70;;
67274;SDS011;55463;52.324;5.122;2023-07-29T04:42:49;3.97;;;2.83;;
67274;SDS011;55463;52.324;5.122;2023-07-29T04:45:16;5.68;;;2.60;;
67274;SDS011;55463;52.324;5.122;2023-07-29T04:47:41;4.75;;;3.00;;
67274;SDS011;55463;52.324;5.122;2023-07-29T04:50:09;7.82;;;2.95;;
67274;SDS011;55463;52.324;5.122;2023-07-29T04:52:35;7.18;;;3.08;;
67274;SDS011;55463;52.324;5.122;2023-07-29T04:55:00;5.20;;;2.95;;
67274;SDS011;55463;52.324;5.122;2023-07-29T04:57:26;14.50;;;3.42;;
67274;SDS011;55463;52.324;5.122;2023-07-29T04:59:51;11.93;;;3.33;;
67274;SDS011;55463;52.324;5.122;2023-07-29T05:02:16;5.43;;;3.25;;
67274;SDS011;55463;52.324;5.122;2023-07-29T05:04:42;7.95;;;3.25;;
67274;SDS011;55463;52.324;5.122;2023-07-29T05:07:07;6.65;;;3.20;;
67274;SDS011;55463;52.324;5.122;2023-07-29T05:09:32;4.90;;;3.00;;
67274;SDS011;55463;52.324;5.122;2023-07-29T05:11:58;5.05;;;2.95;;
67274;SDS011;55463;52.324;5.122;2023-07-29T05:14:23;8.23;;;3.33;;
67274;SDS011;55463;52.324;5.122;2023-07-29T05:16:49;6.72;;;3.05;;
67274;SDS011;55463;52.324;5.122;2023-07-29T05:19:14;6.35;;;2.88;;
67274;SDS011;55463;52.324;5.122;2023-07-29T05:21:39;6.63;;;3.25;;
67274;SDS011;55463;52.324;5.122;2023-07-29T05:24:05;7.40;;;3.53;;
67274;SDS011;55463;52.324;5.122;2023-07-29T05:26:30;5.72;;;3.17;;
67274;SDS011;55463;52.324;5.122;2023-07-29T05:28:56;8.02;;;3.30;;
67274;SDS011;55463;52.324;5.122;2023-07-29T05:31:22;7.78;;;3.08;;
67274;SDS011;55463;52.324;5.122;2023-07-29T05:33:47;6.72;;;3.53;;
67274;SDS011;55463;52.324;5.122;2023-07-29T05:36:13;11.40;;;3.33;;
67274;SDS011;55463;52.324;5.122;2023-07-29T05:38:38;10.48;;;3.67;;
67274;SDS011;55463;52.324;5.122;2023-07-29T05:41:03;6.75;;;3.80;;
67274;SDS011;55463;52.324;5.122;2023-07-29T05:43:29;12.23;;;4.07;;
67274;SDS011;55463;52.324;5.122;2023-07-29T05:45:54;6.13;;;3.60;;
67274;SDS011;55463;52.324;5.122;2023-07-29T05:48:20;9.30;;;3.30;;
67274;SDS011;55463;52.324;5.122;2023-07-29T05:50:45;8.52;;;3.80;;
67274;SDS011;55463;52.324;5.122;2023-07-29T05:53:11;6.63;;;3.70;;
67274;SDS011;55463;52.324;5.122;2023-07-29T05:55:36;9.48;;;3.47;;
67274;SDS011;55463;52.324;5.122;2023-07-29T05:58:01;5.25;;;3.30;;
67274;SDS011;55463;52.324;5.122;2023-07-29T06:00:27;8.23;;;3.92;;
67274;SDS011;55463;52.324;5.122;2023-07-29T06:02:52;6.32;;;3.33;;
67274;SDS011;55463;52.324;5.122;2023-07-29T06:05:17;6.55;;;3.90;;
67274;SDS011;55463;52.324;5.122;2023-07-29T06:07:43;8.57;;;3.40;;
67274;SDS011;55463;52.324;5.122;2023-07-29T06:10:10;7.22;;;4.15;;
67274;SDS011;55463;52.324;5.122;2023-07-29T06:12:39;9.95;;;4.75;;
67274;SDS011;55463;52.324;5.122;2023-07-29T06:15:04;7.72;;;3.50;;
67274;SDS011;55463;52.324;5.122;2023-07-29T06:17:30;8.52;;;3.70;;
67274;SDS011;55463;52.324;5.122;2023-07-29T06:19:55;8.13;;;4.03;;
67274;SDS011;55463;52.324;5.122;2023-07-29T06:22:21;8.75;;;3.72;;
67274;SDS011;55463;52.324;5.122;2023-07-29T06:24:46;7.10;;;3.88;;
67274;SDS011;55463;52.324;5.122;2023-07-29T06:27:12;12.77;;;3.78;;
67274;SDS011;55463;52.324;5.122;2023-07-29T06:29:37;5.05;;;3.35;;
67274;SDS011;55463;52.324;5.122;2023-07-29T06:32:03;8.68;;;3.35;;
67274;SDS011;55463;52.324;5.122;2023-07-29T06:34:28;7.18;;;3.97;;
67274;SDS011;55463;52.324;5.122;2023-07-29T06:36:54;6.93;;;3.53;;
67274;SDS011;55463;52.324;5.122;2023-07-29T06:39:19;11.75;;;3.67;;
67274;SDS011;55463;52.324;5.122;2023-07-29T06:41:45;8.25;;;3.75;;
67274;SDS011;55463;52.324;5.122;2023-07-29T06:44:11;8.60;;;3.60;;
67274;SDS011;55463;52.324;5.122;2023-07-29T06:46:37;12.75;;;3.70;;
67274;SDS011;55463;52.324;5.122;2023-07-29T06:49:02;8.10;;;3.63;;
67274;SDS011;55463;52.324;5.122;2023-07-29T06:51:27;11.50;;;4.05;;
67274;SDS011;55463;52.324;5.122;2023-07-29T06:53:57;6.73;;;4.03;;
67274;SDS011;55463;52.324;5.122;2023-07-29T06:56:22;10.23;;;3.85;;
67274;SDS011;55463;52.324;5.122;2023-07-29T06:58:48;9.27;;;3.65;;
67274;SDS011;55463;52.324;5.122;2023-07-29T07:01:13;6.95;;;4.20;;
67274;SDS011;55463;52.324;5.122;2023-07-29T07:03:38;7.30;;;3.90;;
67274;SDS011;55463;52.324;5.122;2023-07-29T07:06:04;9.00;;;3.78;;
67274;SDS011;55463;52.324;5.122;2023-07-29T07:08:30;9.75;;;4.07;;
67274;SDS011;55463;52.324;5.122;2023-07-29T07:10:56;7.88;;;3.90;;
67274;SDS011;55463;52.324;5.122;2023-07-29T07:13:21;9.50;;;4.20;;
67274;SDS011;55463;52.324;5.122;2023-07-29T07:15:47;7.97;;;3.90;;
67274;SDS011;55463;52.324;5.122;2023-07-29T07:18:12;9.10;;;3.83;;
67274;SDS011;55463;52.324;5.122;2023-07-29T07:20:38;8.80;;;3.95;;
67274;SDS011;55463;52.324;5.122;2023-07-29T07:23:03;7.38;;;3.30;;
67274;SDS011;55463;52.324;5.122;2023-07-29T07:25:30;10.38;;;3.30;;
67274;SDS011;55463;52.324;5.122;2023-07-29T07:27:56;4.85;;;3.25;;
67274;SDS011;55463;52.324;5.122;2023-07-29T07:30:21;7.80;;;3.53;;
67274;SDS011;55463;52.324;5.122;2023-07-29T07:32:47;8.35;;;3.70;;
67274;SDS011;55463;52.324;5.122;2023-07-29T07:35:12;7.53;;;3.33;;
67274;SDS011;55463;52.324;5.122;2023-07-29T07:37:38;6.80;;;3.00;;
67274;SDS011;55463;52.324;5.122;2023-07-29T07:40:03;6.47;;;2.70;;
67274;SDS011;55463;52.324;5.122;2023-07-29T07:42:29;5.25;;;2.70;;
67274;SDS011;55463;52.324;5.122;2023-07-29T07:44:54;6.43;;;3.00;;
67274;SDS011;55463;52.324;5.122;2023-07-29T07:47:20;5.35;;;3.08;;
67274;SDS011;55463;52.324;5.122;2023-07-29T07:49:45;7.05;;;3.28;;
67274;SDS011;55463;52.324;5.122;2023-07-29T07:52:10;9.50;;;3.13;;
67274;SDS011;55463;52.324;5.122;2023-07-29T07:54:36;7.22;;;3.30;;
67274;SDS011;55463;52.324;5.122;2023-07-29T07:57:01;11.70;;;3.75;;
67274;SDS011;55463;52.324;5.122;2023-07-29T07:59:26;6.50;;;3.45;;
67274;SDS011;55463;52.324;5.122;2023-07-29T08:01:52;6.40;;;3.65;;
67274;SDS011;55463;52.324;5.122;2023-07-29T08:04:17;6.97;;;3.33;;
67274;SDS011;55463;52.324;5.122;2023-07-29T08:06:42;6.47;;;3.38;;
67274;SDS011;55463;52.324;5.122;2023-07-29T08:09:08;9.00;;;3.40;;
67274;SDS011;55463;52.324;5.122;2023-07-29T08:11:33;9.38;;;2.97;;
67274;SDS011;55463;52.324;5.122;2023-07-29T08:13:59;6.95;;;2.90;;
67274;SDS011;55463;52.324;5.122;2023-07-29T08:16:24;4.35;;;2.63;;
67274;SDS011;55463;52.324;5.122;2023-07-29T08:18:49;6.57;;;3.03;;
67274;SDS011;55463;52.324;5.122;2023-07-29T08:21:15;5.97;;;2.80;;
67274;SDS011;55463;52.324;5.122;2023-07-29T08:23:44;6.78;;;2.58;;
67274;SDS011;55463;52.324;5.122;2023-07-29T08:26:09;4.18;;;2.50;;
67274;SDS011;55463;52.324;5.122;2023-07-29T08:28:36;4.90;;;2.58;;
67274;SDS011;55463;52.324;5.122;2023-07-29T08:31:02;8.40;;;2.50;;
67274;SDS011;55463;52.324;5.122;2023-07-29T08:33:28;10.38;;;2.60;;
67274;SDS011;55463;52.324;5.122;2023-07-29T08:35:55;4.47;;;2.05;;
67274;SDS011;55463;52.324;5.122;2023-07-29T08:38:21;3.28;;;2.15;;
67274;SDS011;55463;52.324;5.122;2023-07-29T08:46:24;5.40;;;1.92;;
67274;SDS011;55463;52.324;5.122;2023-07-29T08:48:51;6.28;;;2.05;;
67274;SDS011;55463;52.324;5.122;2023-07-29T08:51:16;3.95;;;1.95;;
67274;SDS011;55463;52.324;5.122;2023-07-29T08:53:42;4.72;;;1.75;;
67274;SDS011;55463;52.324;5.122;2023-07-29T08:56:08;5.00;;;1.77;;
67274;SDS011;55463;52.324;5.122;2023-07-29T08:58:34;5.65;;;1.70;;
67274;SDS011;55463;52.324;5.122;2023-07-29T09:01:00;6.25;;;1.80;;
67274;SDS011;55463;52.324;5.122;2023-07-29T09:03:26;4.18;;;1.67;;
67274;SDS011;55463;52.324;5.122;2023-07-29T09:05:51;3.35;;;1.80;;
67274;SDS011;55463;52.324;5.122;2023-07-29T09:08:18;5.90;;;2.22;;
67274;SDS011;55463;52.324;5.122;2023-07-29T09:10:44;2.35;;;1.63;;
67274;SDS011;55463;52.324;5.122;2023-07-29T09:13:09;4.10;;;1.98;;
67274;SDS011;55463;52.324;5.122;2023-07-29T09:15:35;5.55;;;2.00;;
67274;SDS011;55463;52.324;5.122;2023-07-29T09:18:11;3.78;;;1.90;;
67274;SDS011;55463;52.324;5.122;2023-07-29T09:20:40;4.22;;;1.70;;
67274;SDS011;55463;52.324;5.122;2023-07-29T09:23:07;2.92;;;1.85;;
67274;SDS011;55463;52.324;5.122;2023-07-29T09:25:37;7.85;;;2.17;;
67274;SDS011;55463;52.324;5.122;2023-07-29T09:28:08;8.70;;;2.03;;
67274;SDS011;55463;52.324;5.122;2023-07-29T09:30:42;3.17;;;2.05;;
67274;SDS011;55463;52.324;5.122;2023-07-29T09:33:10;6.15;;;2.47;;
67274;SDS011;55463;52.324;5.122;2023-07-29T09:35:35;4.30;;;1.85;;
67274;SDS011;55463;52.324;5.122;2023-07-29T09:38:05;7.10;;;2.38;;
67274;SDS011;55463;52.324;5.122;2023-07-29T09:40:38;6.18;;;2.13;;
67274;SDS011;55463;52.324;5.122;2023-07-29T09:43:05;8.00;;;2.25;;
67274;SDS011;55463;52.324;5.122;2023-07-29T09:45:32;4.82;;;2.25;;
67274;SDS011;55463;52.324;5.122;2023-07-29T09:47:58;11.27;;;2.58;;
67274;SDS011;55463;52.324;5.122;2023-07-29T09:50:24;4.22;;;2.22;;
67274;SDS011;55463;52.324;5.122;2023-07-29T09:52:50;5.60;;;2.10;;
67274;SDS011;55463;52.324;5.122;2023-07-29T09:55:17;7.38;;;2.40;;
67274;SDS011;55463;52.324;5.122;2023-07-29T09:57:44;3.90;;;1.80;;
67274;SDS011;55463;52.324;5.122;2023-07-29T10:00:12;7.55;;;2.20;;
67274;SDS011;55463;52.324;5.122;2023-07-29T10:02:39;3.55;;;1.65;;
67274;SDS011;55463;52.324;5.122;2023-07-29T10:05:06;6.60;;;2.08;;
67274;SDS011;55463;52.324;5.122;2023-07-29T10:07:36;4.45;;;2.13;;
67274;SDS011;55463;52.324;5.122;2023-07-29T10:10:06;7.57;;;1.63;;
67274;SDS011;55463;52.324;5.122;2023-07-29T10:12:32;6.05;;;2.13;;
67274;SDS011;55463;52.324;5.122;2023-07-29T10:15:03;6.07;;;1.73;;
67274;SDS011;55463;52.324;5.122;2023-07-29T10:17:30;4.60;;;1.77;;
67274;SDS011;55463;52.324;5.122;2023-07-29T10:19:58;6.95;;;2.05;;
67274;SDS011;55463;52.324;5.122;2023-07-29T10:22:24;4.63;;;1.70;;
67274;SDS011;55463;52.324;5.122;2023-07-29T10:24:54;9.85;;;2.28;;
67274;SDS011;55463;52.324;5.122;2023-07-29T10:27:22;5.13;;;2.22;;
67274;SDS011;55463;52.324;5.122;2023-07-29T10:29:49;5.65;;;1.70;;
67274;SDS011;55463;52.324;5.122;2023-07-29T10:32:18;7.60;;;2.00;;
67274;SDS011;55463;52.324;5.122;2023-07-29T10:34:47;4.75;;;2.20;;
67274;SDS011;55463;52.324;5.122;2023-07-29T10:37:12;6.05;;;1.90;;
67274;SDS011;55463;52.324;5.122;2023-07-29T10:39:38;5.05;;;1.90;;
67274;SDS011;55463;52.324;5.122;2023-07-29T10:42:05;6.18;;;1.88;;
67274;SDS011;55463;52.324;5.122;2023-07-29T10:47:14;5.63;;;1.85;;
67274;SDS011;55463;52.324;5.122;2023-07-29T10:49:47;5.28;;;1.90;;
67274;SDS011;55463;52.324;5.122;2023-07-29T10:52:15;7.60;;;2.28;;
67274;SDS011;55463;52.324;5.122;2023-07-29T10:54:45;8.25;;;2.30;;
67274;SDS011;55463;52.324;5.122;2023-07-29T10:57:12;6.82;;;2.25;;
67274;SDS011;55463;52.324;5.122;2023-07-29T10:59:39;5.32;;;2.17;;
67274;SDS011;55463;52.324;5.122;2023-07-29T11:02:11;5.85;;;2.10;;
67274;SDS011;55463;52.324;5.122;2023-07-29T11:04:47;6.63;;;1.70;;
67274;SDS011;55463;52.324;5.122;2023-07-29T11:15:04;6.38;;;2.10;;
67274;SDS011;55463;52.324;5.122;2023-07-29T11:17:58;8.35;;;2.40;;
67274;SDS011;55463;52.324;5.122;2023-07-29T11:20:28;8.90;;;2.33;;
67274;SDS011;55463;52.324;5.122;2023-07-29T11:22:55;7.65;;;2.08;;
67274;SDS011;55463;52.324;5.122;2023-07-29T11:25:23;6.18;;;2.15;;
67274;SDS011;55463;52.324;5.122;2023-07-29T11:27:53;3.90;;;2.08;;
67274;SDS011;55463;52.324;5.122;2023-07-29T11:30:20;2.83;;;2.08;;
67274;SDS011;55463;52.324;5.122;2023-07-29T11:32:46;1.83;;;1.67;;
67274;SDS011;55463;52.324;5.122;2023-07-29T11:35:12;1.90;;;1.70;;
67274;SDS011;55463;52.324;5.122;2023-07-29T11:37:40;6.63;;;1.95;;
67274;SDS011;55463;52.324;5.122;2023-07-29T11:40:07;2.83;;;1.70;;
67274;SDS011;55463;52.324;5.122;2023-07-29T11:42:35;2.33;;;1.70;;
67274;SDS011;55463;52.324;5.122;2023-07-29T11:45:04;3.90;;;1.65;;
67274;SDS011;55463;52.324;5.122;2023-07-29T11:47:33;1.77;;;1.58;;
67274;SDS011;55463;52.324;5.122;2023-07-29T11:50:02;6.03;;;2.00;;
67274;SDS011;55463;52.324;5.122;2023-07-29T11:52:34;2.75;;;1.70;;
67274;SDS011;55463;52.324;5.122;2023-07-29T11:55:00;2.85;;;1.70;;
67274;SDS011;55463;52.324;5.122;2023-07-29T11:57:28;1.73;;;1.60;;
67274;SDS011;55463;52.324;5.122;2023-07-29T11:59:54;5.03;;;2.00;;
67274;SDS011;55463;52.324;5.122;2023-07-29T12:02:19;2.08;;;1.75;;
67274;SDS011;55463;52.324;5.122;2023-07-29T12:04:46;3.03;;;2.10;;
67274;SDS011;55463;52.324;5.122;2023-07-29T12:07:12;4.40;;;2.22;;
67274;SDS011;55463;52.324;5.122;2023-07-29T12:09:39;1.95;;;1.85;;
67274;SDS011;55463;52.324;5.122;2023-07-29T12:12:05;2.10;;;1.90;;
67274;SDS011;55463;52.324;5.122;2023-07-29T12:14:31;3.28;;;1.92;;
67274;SDS011;55463;52.324;5.122;2023-07-29T12:17:04;1.60;;;1.50;;
67274;SDS011;55463;52.324;5.122;2023-07-29T12:19:37;1.60;;;1.50;;
67274;SDS011;55463;52.324;5.122;2023-07-29T12:22:04;1.80;;;1.33;;
67274;SDS011;55463;52.324;5.122;2023-07-29T12:24:33;1.38;;;1.15;;
67274;SDS011;55463;52.324;5.122;2023-07-29T12:27:00;1.35;;;1.25;;
67274;SDS011;55463;52.324;5.122;2023-07-29T12:29:26;2.97;;;1.73;;
67274;SDS011;55463;52.324;5.122;2023-07-29T12:32:02;3.42;;;1.70;;
67274;SDS011;55463;52.324;5.122;2023-07-29T12:34:28;1.85;;;1.58;;
67274;SDS011;55463;52.324;5.122;2023-07-29T12:36:55;1.70;;;1.60;;
67274;SDS011;55463;52.324;5.122;2023-07-29T12:39:26;1.98;;;1.75;;
67274;SDS011;55463;52.324;5.122;2023-07-29T12:44:23;2.00;;;1.80;;
67274;SDS011;55463;52.324;5.122;2023-07-29T12:46:50;1.98;;;1.70;;
67274;SDS011;55463;52.324;5.122;2023-07-29T12:49:18;1.60;;;1.50;;
67274;SDS011;55463;52.324;5.122;2023-07-29T12:51:43;1.60;;;1.50;;
67274;SDS011;55463;52.324;5.122;2023-07-29T12:54:09;3.85;;;1.42;;
67274;SDS011;55463;52.324;5.122;2023-07-29T12:56:35;2.63;;;1.70;;
67274;SDS011;55463;52.324;5.122;2023-07-29T12:59:00;2.15;;;1.40;;
67274;SDS011;55463;52.324;5.122;2023-07-29T13:01:27;3.30;;;1.65;;
67274;SDS011;55463;52.324;5.122;2023-07-29T13:03:53;1.60;;;1.50;;
67274;SDS011;55463;52.324;5.122;2023-07-29T13:06:19;3.80;;;2.00;;
67274;SDS011;55463;52.324;5.122;2023-07-29T13:08:45;1.67;;;1.55;;
67274;SDS011;55463;52.324;5.122;2023-07-29T13:11:11;1.60;;;1.50;;
67274;SDS011;55463;52.324;5.122;2023-07-29T13:13:36;4.28;;;2.00;;
67274;SDS011;55463;52.324;5.122;2023-07-29T13:16:02;2.08;;;1.58;;
67274;SDS011;55463;52.324;5.122;2023-07-29T13:18:28;3.40;;;1.80;;
67274;SDS011;55463;52.324;5.122;2023-07-29T13:20:54;2.50;;;1.50;;
67274;SDS011;55463;52.324;5.122;2023-07-29T13:23:19;8.18;;;1.95;;
67274;SDS011;55463;52.324;5.122;2023-07-29T13:25:45;3.83;;;1.70;;
67274;SDS011;55463;52.324;5.122;2023-07-29T13:28:11;2.45;;;1.75;;
67274;SDS011;55463;52.324;5.122;2023-07-29T13:30:38;3.38;;;1.88;;
67274;SDS011;55463;52.324;5.122;2023-07-29T13:33:06;6.82;;;2.38;;
67274;SDS011;55463;52.324;5.122;2023-07-29T13:35:32;3.90;;;1.80;;
67274;SDS011;55463;52.324;5.122;2023-07-29T13:37:57;8.73;;;2.00;;
67274;SDS011;55463;52.324;5.122;2023-07-29T13:40:23;4.57;;;2.25;;
67274;SDS011;55463;52.324;5.122;2023-07-29T13:42:48;4.50;;;1.70;;
67274;SDS011;55463;52.324;5.122;2023-07-29T13:45:13;3.35;;;1.80;;
67274;SDS011;55463;52.324;5.122;2023-07-29T13:47:39;4.43;;;1.95;;
67274;SDS011;55463;52.324;5.122;2023-07-29T13:50:04;2.17;;;1.70;;
67274;SDS011;55463;52.324;5.122;2023-07-29T13:52:32;5.53;;;2.67;;
67274;SDS011;55463;52.324;5.122;2023-07-29T13:54:57;4.53;;;1.88;;
67274;SDS011;55463;52.324;5.122;2023-07-29T13:57:23;2.35;;;2.03;;
67274;SDS011;55463;52.324;5.122;2023-07-29T13:59:48;3.72;;;1.70;;
67274;SDS011;55463;52.324;5.122;2023-07-29T14:02:14;4.72;;;1.50;;
67274;SDS011;55463;52.324;5.122;2023-07-29T14:04:39;4.75;;;1.83;;
67274;SDS011;55463;52.324;5.122;2023-07-29T14:07:04;6.22;;;2.25;;
67274;SDS011;55463;52.324;5.122;2023-07-29T14:09:30;2.20;;;1.60;;
67274;SDS011;55463;52.324;5.122;2023-07-29T14:11:55;3.33;;;2.00;;
67274;SDS011;55463;52.324;5.122;2023-07-29T14:14:21;3.25;;;1.30;;
67274;SDS011;55463;52.324;5.122;2023-07-29T14:16:46;1.90;;;1.33;;
67274;SDS011;55463;52.324;5.122;2023-07-29T14:19:12;5.53;;;1.52;;
67274;SDS011;55463;52.324;5.122;2023-07-29T14:21:37;3.65;;;1.35;;
67274;SDS011;55463;52.324;5.122;2023-07-29T14:24:03;2.13;;;1.35;;
67274;SDS011;55463;52.324;5.122;2023-07-29T14:26:28;2.97;;;1.45;;
67274;SDS011;55463;52.324;5.122;2023-07-29T14:28:54;2.15;;;1.30;;
67274;SDS011;55463;52.324;5.122;2023-07-29T14:31:19;4.25;;;1.48;;
67274;SDS011;55463;52.324;5.122;2023-07-29T14:33:44;1.50;;;1.27;;
67274;SDS011;55463;52.324;5.122;2023-07-29T14:36:10;2.63;;;1.20;;
67274;SDS011;55463;52.324;5.122;2023-07-29T14:38:35;1.80;;;1.35;;
67274;SDS011;55463;52.324;5.122;2023-07-29T14:41:07;5.18;;;1.60;;
67274;SDS011;55463;52.324;5.122;2023-07-29T14:43:33;2.20;;;1.50;;
67274;SDS011;55463;52.324;5.122;2023-07-29T14:45:59;2.22;;;1.30;;
67274;SDS011;55463;52.324;5.122;2023-07-29T14:48:24;4.07;;;1.40;;
67274;SDS011;55463;52.324;5.122;2023-07-29T14:50:50;2.25;;;1.20;;
67274;SDS011;55463;52.324;5.122;2023-07-29T14:53:15;1.52;;;1.30;;
67274;SDS011;55463;52.324;5.122;2023-07-29T14:55:40;2.22;;;1.42;;
67274;SDS011;55463;52.324;5.122;2023-07-29T14:58:06;3.17;;;1.50;;
67274;SDS011;55463;52.324;5.122;2023-07-29T15:00:31;5.45;;;1.60;;
67274;SDS011;55463;52.324;5.122;2023-07-29T15:02:57;5.03;;;1.50;;
67274;SDS011;55463;52.324;5.122;2023-07-29T15:05:22;1.65;;;1.30;;
67274;SDS011;55463;52.324;5.122;2023-07-29T15:07:47;3.17;;;1.42;;
67274;SDS011;55463;52.324;5.122;2023-07-29T15:10:16;3.05;;;1.30;;